Time;durP1;ratioP1;P1;durP2;ratioP2;P2;SDS_P1;SDS_P2;PMS_P1;PMS_P2;Temp;Humidity;BMP_temperature;BMP_pressure;BME280_temperature;BME280_humidity;BME280_pressure;Samples;Min_cycle;Max_cycle;Signal;HPM_P1;HPM_P2
2021/06/26 03:01:33;;;;;;;9.80;6.88;;;14.10;99.90;;;;;;5797780;23;89052;-81
2021/06/26 03:03:59;;;;;;;9.85;6.70;;;14.10;99.90;;;;;;4865428;28;86942;-84
2021/06/26 03:06:25;;;;;;;7.45;6.18;;;14.10;99.90;;;;;;4862353;29;87001;-84
2021/06/26 03:08:51;;;;;;;8.75;5.72;;;14.10;99.90;;;;;;4867095;29;88496;-84
2021/06/26 03:11:16;;;;;;;9.57;6.60;;;14.10;99.90;;;;;;4875871;29;86960;-88
2021/06/26 03:13:42;;;;;;;7.85;5.80;;;14.00;99.90;;;;;;4881032;29;86353;-87
2021/06/26 03:16:08;;;;;;;10.13;8.20;;;;;;;;;;4881045;28;88537;-86
2021/06/26 03:18:34;;;;;;;8.85;6.50;;;14.00;99.90;;;;;;4882338;29;88172;-86
2021/06/26 03:21:00;;;;;;;8.85;7.65;;;13.90;99.90;;;;;;4881231;28;87032;-86
2021/06/26 03:23:26;;;;;;;10.10;7.70;;;13.70;99.90;;;;;;4880441;28;87057;-86
2021/06/26 03:25:51;;;;;;;9.93;6.75;;;13.90;99.90;;;;;;4878327;29;87160;-85
2021/06/26 03:28:17;;;;;;;9.68;6.80;;;13.80;99.90;;;;;;4867418;29;86972;-85
2021/06/26 03:30:43;;;;;;;8.88;6.78;;;13.90;99.90;;;;;;4867617;28;86187;-85
2021/06/26 03:33:09;;;;;;;8.90;6.32;;;13.90;99.90;;;;;;4866394;29;86289;-84
2021/06/26 03:35:35;;;;;;;9.93;6.88;;;13.80;99.90;;;;;;4867381;29;88301;-84
2021/06/26 03:38:01;;;;;;;9.95;6.80;;;13.80;99.90;;;;;;4866784;28;87056;-84
2021/06/26 03:40:27;;;;;;;9.68;7.72;;;;;;;;;;4866903;29;87930;-85
2021/06/26 03:42:52;;;;;;;8.85;6.80;;;13.80;99.90;;;;;;4867469;29;86941;-86
2021/06/26 03:45:18;;;;;;;10.63;7.25;;;13.80;99.90;;;;;;4867916;29;88309;-84
2021/06/26 03:47:44;;;;;;;8.82;6.47;;;13.80;99.90;;;;;;4868686;29;87364;-85
2021/06/26 03:50:10;;;;;;;7.85;5.90;;;13.80;99.90;;;;;;4870274;29;87392;-86
2021/06/26 03:52:35;;;;;;;9.40;5.88;;;13.70;99.90;;;;;;4869898;29;87042;-85
2021/06/26 03:55:01;;;;;;;8.05;6.00;;;13.70;99.90;;;;;;4869291;29;87124;-84
2021/06/26 03:57:27;;;;;;;7.65;5.90;;;13.70;99.90;;;;;;4866621;28;87164;-84
2021/06/26 03:59:52;;;;;;;7.93;5.88;;;13.80;99.90;;;;;;4866784;29;87106;-85
2021/06/26 04:02:18;;;;;;;6.68;5.40;;;13.90;99.90;;;;;;4857238;28;86733;-86
2021/06/26 04:04:44;;;;;;;6.72;4.90;;;13.90;99.90;;;;;;4863420;29;89082;-84
2021/06/26 04:07:10;;;;;;;7.35;6.60;;;;;;;;;;4861776;29;87802;-84
2021/06/26 04:09:35;;;;;;;7.32;6.00;;;14.00;99.90;;;;;;4865605;29;86898;-83
2021/06/26 04:12:01;;;;;;;8.35;5.63;;;14.10;99.90;;;;;;4861740;29;86935;-83
2021/06/26 04:14:27;;;;;;;6.53;5.40;;;14.20;99.90;;;;;;4850017;29;86928;-84
2021/06/26 04:16:53;;;;;;;7.95;7.05;;;14.30;99.90;;;;;;4850093;29;86648;-83
2021/06/26 04:19:18;;;;;;;8.27;5.40;;;14.20;99.90;;;;;;4851679;29;87038;-83
2021/06/26 04:21:44;;;;;;;6.45;5.50;;;14.30;99.90;;;;;;4865994;28;86145;-84
2021/06/26 04:24:10;;;;;;;5.82;5.20;;;14.40;99.90;;;;;;4852136;29;88664;-83
2021/06/26 04:26:35;;;;;;;7.25;6.55;;;14.80;99.90;;;;;;4851079;29;87120;-83
2021/06/26 04:29:01;;;;;;;7.90;5.25;;;14.50;99.90;;;;;;4853143;29;87772;-83
2021/06/26 04:31:27;;;;;;;8.25;6.13;;;;;;;;;;4853226;29;86533;-83
2021/06/26 04:33:53;;;;;;;6.95;6.25;;;14.60;99.90;;;;;;4851408;29;88442;-83
2021/06/26 04:36:19;;;;;;;6.38;4.75;;;14.70;99.90;;;;;;4871123;29;86976;-86
2021/06/26 04:38:45;;;;;;;8.52;5.32;;;14.70;99.90;;;;;;4876935;28;86963;-85
2021/06/26 04:41:11;;;;;;;5.55;4.38;;;14.80;99.90;;;;;;4877487;29;86655;-85
2021/06/26 04:43:37;;;;;;;6.68;4.75;;;14.90;99.90;;;;;;4875496;29;87064;-84
2021/06/26 04:46:03;;;;;;;9.13;4.68;;;14.90;99.90;;;;;;4876493;28;87174;-85
2021/06/26 04:48:29;;;;;;;6.95;4.80;;;15.00;99.90;;;;;;4876797;29;87083;-85
2021/06/26 04:50:56;;;;;;;7.18;5.00;;;15.10;99.90;;;;;;4872654;29;86932;-85
2021/06/26 04:53:22;;;;;;;5.32;4.53;;;15.20;99.90;;;;;;4874667;29;87875;-85
2021/06/26 04:55:53;;;;;;;5.85;5.05;;;15.20;99.90;;;;;;4880230;28;87953;-85
2021/06/26 04:58:23;;;;;;;5.47;4.65;;;15.30;99.90;;;;;;4868958;29;87362;-83
2021/06/26 05:00:51;;;;;;;8.23;5.40;;;15.50;99.90;;;;;;4878244;29;86876;-84
2021/06/26 05:03:21;;;;;;;7.13;4.90;;;15.50;99.90;;;;;;4877792;28;87616;-86
2021/06/26 05:05:48;;;;;;;6.30;4.82;;;15.60;99.90;;;;;;4867446;29;87046;-85
2021/06/26 05:08:15;;;;;;;6.45;4.68;;;15.70;99.90;;;;;;4865433;29;86819;-85
2021/06/26 05:10:42;;;;;;;8.27;7.47;;;15.80;99.90;;;;;;4869769;29;86407;-76
2021/06/26 05:13:08;;;;;;;6.47;4.97;;;15.90;99.90;;;;;;4858607;28;87475;-76
2021/06/26 05:15:34;;;;;;;6.38;5.32;;;16.00;99.90;;;;;;4866159;28;86754;-76
2021/06/26 05:18:00;;;;;;;6.15;5.32;;;16.10;99.90;;;;;;4866751;29;87831;-76
2021/06/26 05:20:26;;;;;;;6.55;5.55;;;16.20;99.90;;;;;;4863052;29;87535;-77
2021/06/26 05:22:52;;;;;;;6.07;5.25;;;16.40;99.90;;;;;;4860894;29;88167;-77
2021/06/26 05:25:18;;;;;;;7.80;5.90;;;16.40;99.90;;;;;;4863897;29;88725;-76
2021/06/26 05:27:44;;;;;;;6.65;5.82;;;16.50;99.90;;;;;;4866672;29;86841;-76
2021/06/26 05:33:32;;;;;;;8.50;5.63;;;16.60;99.90;;;;;;4845875;29;86901;-75
2021/06/26 05:35:58;;;;;;;6.13;5.13;;;16.70;99.90;;;;;;4851061;29;86095;-74
2021/06/26 05:38:24;;;;;;;7.13;5.63;;;16.80;99.90;;;;;;4851471;29;86927;-75
2021/06/26 05:40:49;;;;;;;6.03;5.18;;;16.80;99.90;;;;;;4860747;29;86578;-75
2021/06/26 05:43:15;;;;;;;9.18;6.43;;;16.90;99.90;;;;;;4866676;28;88045;-74
2021/06/26 05:45:41;;;;;;;8.07;5.60;;;16.90;99.90;;;;;;4867839;28;88194;-74
2021/06/26 05:48:08;;;;;;;8.40;6.22;;;17.00;99.90;;;;;;4864957;28;86619;-75
2021/06/26 05:50:34;;;;;;;8.00;5.93;;;17.10;99.90;;;;;;4865389;29;87706;-75
2021/06/26 05:53:31;;;;;;;7.00;5.53;;;17.20;99.90;;;;;;4867807;29;86882;-81
2021/06/26 05:55:58;;;;;;;8.77;6.85;;;17.40;99.90;;;;;;4868801;29;86994;-80
2021/06/26 05:58:33;;;;;;;7.25;5.90;;;17.50;99.90;;;;;;4868929;29;86919;-82
2021/06/26 06:01:00;;;;;;;8.23;6.15;;;17.50;99.90;;;;;;4864322;29;86262;-81
2021/06/26 06:03:26;;;;;;;7.68;6.32;;;17.60;99.90;;;;;;4860242;29;87449;-81
2021/06/26 06:05:52;;;;;;;7.88;5.80;;;17.70;99.90;;;;;;4859285;29;86984;-82
2021/06/26 06:08:19;;;;;;;7.53;6.13;;;17.80;99.90;;;;;;4862522;29;87868;-81
2021/06/26 06:10:45;;;;;;;6.93;5.85;;;17.90;99.90;;;;;;4839614;29;87005;-81
2021/06/26 06:13:18;;;;;;;8.98;6.55;;;18.00;99.90;;;;;;4844062;29;87341;-81
2021/06/26 06:15:46;;;;;;;8.23;5.95;;;18.10;99.90;;;;;;4850069;29;86824;-82
2021/06/26 06:18:13;;;;;;;8.45;6.45;;;18.20;99.90;;;;;;4854928;29;87273;-84
2021/06/26 06:20:39;;;;;;;8.82;6.45;;;18.30;99.90;;;;;;4854195;29;86711;-80
2021/06/26 06:23:05;;;;;;;8.15;6.30;;;18.40;99.90;;;;;;4852872;29;87441;-83
2021/06/26 06:25:32;;;;;;;7.00;6.07;;;18.50;99.90;;;;;;4853903;29;87860;-83
2021/06/26 06:27:58;;;;;;;7.68;6.20;;;18.60;99.90;;;;;;4844161;29;86619;-82
2021/06/26 06:30:24;;;;;;;7.15;5.88;;;18.80;99.90;;;;;;4834876;29;86981;-84
2021/06/26 06:32:50;;;;;;;10.20;6.05;;;18.90;99.90;;;;;;4832854;29;88126;-82
2021/06/26 06:35:16;;;;;;;7.65;5.68;;;19.10;99.90;;;;;;4848175;29;87859;-83
2021/06/26 06:38:25;;;;;;;7.80;6.05;;;19.20;99.90;;;;;;4854808;29;86868;-84
2021/06/26 06:40:51;;;;;;;7.40;6.13;;;19.30;99.90;;;;;;4842484;29;86672;-84
2021/06/26 06:43:17;;;;;;;8.52;6.28;;;19.40;99.90;;;;;;4849719;29;88004;-84
2021/06/26 06:45:42;;;;;;;7.70;6.15;;;19.40;99.90;;;;;;4856849;29;87516;-84
2021/06/26 06:48:08;;;;;;;6.70;5.70;;;19.50;99.90;;;;;;4858191;29;86982;-83
2021/06/26 06:50:34;;;;;;;6.32;5.47;;;19.60;99.90;;;;;;4857150;29;85977;-83
2021/06/26 06:53:02;;;;;;;7.13;5.43;;;19.70;99.90;;;;;;4853472;29;87030;-82
2021/06/26 06:55:28;;;;;;;7.40;5.55;;;19.70;99.90;;;;;;4852103;29;86442;-81
2021/06/26 06:57:54;;;;;;;9.20;6.80;;;19.80;99.90;;;;;;4851369;29;87587;-82
2021/06/26 07:00:19;;;;;;;6.72;6.03;;;19.80;99.90;;;;;;4851405;29;86817;-84
2021/06/26 07:02:45;;;;;;;8.68;6.43;;;20.00;99.90;;;;;;4846794;29;87154;-81
2021/06/26 07:05:11;;;;;;;8.85;7.75;;;20.60;99.90;;;;;;4860769;29;86960;-83
2021/06/26 07:07:37;;;;;;;9.10;6.97;;;20.20;99.90;;;;;;4867604;29;86837;-81
2021/06/26 07:10:04;;;;;;;10.10;7.57;;;20.40;99.90;;;;;;4869496;29;87402;-85
2021/06/26 07:12:30;;;;;;;7.70;6.72;;;20.60;99.90;;;;;;4868741;29;88564;-82
2021/06/26 07:14:56;;;;;;;15.95;7.85;;;21.00;99.90;;;;;;4869275;29;87332;-82
2021/06/26 07:17:22;;;;;;;9.60;8.65;;;;;;;;;;4870073;29;86981;-82
2021/06/26 07:19:47;;;;;;;10.15;7.43;;;21.60;99.90;;;;;;4870746;29;87064;-83
2021/06/26 07:22:13;;;;;;;12.77;7.30;;;22.00;99.90;;;;;;4856511;29;88598;-82
2021/06/26 07:24:39;;;;;;;6.97;6.28;;;22.20;99.30;;;;;;4865926;29;87595;-82
2021/06/26 07:27:05;;;;;;;8.52;6.95;;;22.40;98.90;;;;;;4869286;28;86773;-82
2021/06/26 07:29:31;;;;;;;7.65;6.80;;;22.50;98.20;;;;;;4862416;29;86930;-82
2021/06/26 07:31:58;;;;;;;8.32;6.82;;;22.60;98.00;;;;;;4869885;29;87477;-84
2021/06/26 07:34:23;;;;;;;8.32;6.70;;;22.60;97.80;;;;;;4867932;29;87286;-82
2021/06/26 07:36:49;;;;;;;6.72;6.00;;;22.50;97.60;;;;;;4868112;29;86916;-82
2021/06/26 07:39:15;;;;;;;9.65;6.80;;;22.40;97.80;;;;;;4865874;29;86332;-82
2021/06/26 07:41:42;;;;;;;8.85;7.88;;;22.60;97.50;;;;;;4867779;29;88191;-82
2021/06/26 07:44:07;;;;;;;7.95;6.47;;;22.50;97.60;;;;;;4870718;29;86943;-82
2021/06/26 07:46:33;;;;;;;8.25;6.38;;;22.60;96.50;;;;;;4875377;29;87996;-83
2021/06/26 07:48:59;;;;;;;7.20;6.47;;;22.60;96.30;;;;;;4871570;29;86729;-82
2021/06/26 07:51:25;;;;;;;7.57;6.43;;;22.60;96.60;;;;;;4874839;29;87234;-83
2021/06/26 07:53:50;;;;;;;6.97;5.30;;;22.70;96.30;;;;;;4881072;29;86941;-84
2021/06/26 07:56:16;;;;;;;9.23;7.88;;;23.20;95.60;;;;;;4876671;29;87331;-85
2021/06/26 07:58:42;;;;;;;8.05;7.28;;;;;;;;;;4876664;29;87161;-84
2021/06/26 08:01:08;;;;;;;7.63;6.15;;;22.80;95.30;;;;;;4872929;29;87732;-85
2021/06/26 08:03:33;;;;;;;8.23;7.43;;;22.50;95.10;;;;;;4870934;29;87330;-84
2021/06/26 08:05:59;;;;;;;7.22;6.22;;;22.70;95.20;;;;;;4872903;29;86988;-83
2021/06/26 08:08:25;;;;;;;7.60;6.85;;;23.10;94.70;;;;;;4875655;29;88278;-85
2021/06/26 08:10:51;;;;;;;8.07;7.38;;;23.00;94.50;;;;;;4873331;29;90026;-85
2021/06/26 08:13:17;;;;;;;7.88;7.07;;;23.10;94.10;;;;;;4876258;29;88458;-85
2021/06/26 08:15:43;;;;;;;6.80;6.07;;;23.20;94.40;;;;;;4860189;29;86933;-82
2021/06/26 08:21:32;;;;;;;7.75;7.00;;;;;;;;;;4858753;29;86936;-84
2021/06/26 08:23:58;;;;;;;8.85;8.05;;;23.10;92.70;;;;;;4875029;29;87068;-84
2021/06/26 08:26:23;;;;;;;8.43;7.10;;;23.10;92.30;;;;;;4883025;29;86805;-83
2021/06/26 08:28:49;;;;;;;7.95;6.97;;;22.90;93.10;;;;;;4885783;29;86225;-84
2021/06/26 08:31:15;;;;;;;7.70;7.00;;;23.40;93.00;;;;;;4883436;29;86671;-84
2021/06/26 08:33:41;;;;;;;8.52;7.57;;;22.80;92.10;;;;;;4878697;29;86993;-84
2021/06/26 08:39:29;;;;;;;8.05;7.25;;;23.60;92.60;;;;;;4877932;29;86833;-83
2021/06/26 08:41:54;;;;;;;7.97;7.18;;;23.80;92.10;;;;;;4883786;28;86625;-83
2021/06/26 08:44:21;;;;;;;9.55;7.82;;;;;;;;;;4881869;29;86670;-83
2021/06/26 08:46:50;;;;;;;7.00;6.40;;;23.70;91.40;;;;;;4879341;28;86762;-85
2021/06/26 08:49:17;;;;;;;7.82;5.90;;;23.80;91.20;;;;;;4884689;29;86298;-82
2021/06/26 08:51:43;;;;;;;7.80;6.32;;;23.80;90.90;;;;;;4876475;29;87459;-81
2021/06/26 08:54:15;;;;;;;8.05;7.30;;;24.10;90.80;;;;;;4868669;29;87231;-82
2021/06/26 08:56:42;;;;;;;8.18;7.47;;;24.00;90.00;;;;;;4862005;29;86308;-82
2021/06/26 09:02:36;;;;;;;7.50;5.80;;;24.10;88.10;;;;;;4856904;29;88322;-81
2021/06/26 09:05:04;;;;;;;6.63;6.03;;;24.40;86.00;;;;;;4839740;29;87305;-82
2021/06/26 09:07:37;;;;;;;6.53;5.82;;;24.50;86.80;;;;;;4843255;29;86734;-83
2021/06/26 09:10:10;;;;;;;6.70;5.82;;;24.80;86.30;;;;;;4858862;29;86784;-81
2021/06/26 09:12:37;;;;;;;7.70;7.00;;;25.20;83.40;;;;;;4857027;29;87083;-83
2021/06/26 09:15:03;;;;;;;7.65;6.85;;;25.50;81.50;;;;;;4855471;29;87056;-83
2021/06/26 09:17:31;;;;;;;7.80;7.03;;;25.60;80.00;;;;;;4841199;29;86343;-82
2021/06/26 09:20:02;;;;;;;5.90;5.40;;;25.50;80.10;;;;;;4852197;29;85612;-84
2021/06/26 09:22:43;;;;;;;7.53;6.78;;;25.90;81.50;;;;;;4846067;29;87311;-83
2021/06/26 09:25:30;;;;;;;6.43;5.88;;;26.50;77.20;;;;;;4853198;29;87692;-84
2021/06/26 09:27:59;;;;;;;7.72;7.13;;;27.20;74.90;;;;;;4843361;29;87624;-86
2021/06/26 09:30:42;;;;;;;6.63;6.13;;;27.80;71.50;;;;;;4843583;29;87095;-83
2021/06/26 09:33:16;;;;;;;5.60;5.10;;;28.50;68.80;;;;;;4846923;29;88505;-82
2021/06/26 09:35:46;;;;;;;6.68;6.22;;;29.30;65.40;;;;;;4849077;29;87640;-83
2021/06/26 09:38:12;;;;;;;;;;;29.90;66.50;;;;;;4851563;29;86843;-82
2021/06/26 09:40:41;;;;;;;5.43;5.00;;;30.80;61.60;;;;;;4857743;29;86335;-81
2021/06/26 09:43:08;;;;;;;6.93;6.22;;;31.60;58.90;;;;;;4859629;29;87716;-81
2021/06/26 09:45:35;;;;;;;6.13;5.57;;;32.10;57.90;;;;;;4855660;29;86947;-82
2021/06/26 09:48:07;;;;;;;7.97;6.32;;;33.30;56.00;;;;;;4855591;29;87909;-82
2021/06/26 09:50:35;;;;;;;6.43;5.93;;;34.90;51.30;;;;;;4850656;29;86945;-80
2021/06/26 09:53:06;;;;;;;6.50;5.93;;;36.10;51.00;;;;;;4850781;29;88194;-81
2021/06/26 09:55:40;;;;;;;6.18;5.70;;;36.80;47.00;;;;;;4850546;29;87923;-82
2021/06/26 09:58:11;;;;;;;5.88;5.47;;;37.80;44.90;;;;;;4854321;29;86608;-82
2021/06/26 10:00:40;;;;;;;6.43;5.93;;;39.00;40.90;;;;;;4848924;29;86990;-83
2021/06/26 10:03:06;;;;;;;;;;;38.80;41.10;;;;;;4845212;29;86973;-82
2021/06/26 10:05:32;;;;;;;6.10;5.70;;;39.20;40.20;;;;;;4864284;29;87363;-84
2021/06/26 10:08:03;;;;;;;6.00;5.60;;;39.40;38.80;;;;;;4857309;29;86990;-80
2021/06/26 10:10:29;;;;;;;5.90;5.50;;;39.40;40.00;;;;;;4852010;29;86123;-82
2021/06/26 10:12:56;;;;;;;6.25;5.85;;;39.40;39.90;;;;;;4852686;29;87228;-83
2021/06/26 10:15:24;;;;;;;6.22;5.82;;;39.30;40.60;;;;;;4860195;29;86681;-80
2021/06/26 10:17:50;;;;;;;6.30;5.95;;;38.90;39.30;;;;;;4856855;29;88111;-84
2021/06/26 10:20:17;;;;;;;5.68;5.28;;;39.00;39.90;;;;;;4857751;29;87067;-83
2021/06/26 10:22:49;;;;;;;6.47;6.07;;;39.70;39.20;;;;;;4851266;29;87127;-83
2021/06/26 10:25:16;;;;;;;4.07;3.78;;;40.50;38.40;;;;;;4857176;29;87791;-84
2021/06/26 10:27:42;;;;;;;5.78;5.47;;;40.90;38.90;;;;;;4845244;29;86237;-84
2021/06/26 10:30:21;;;;;;;5.15;4.95;;;41.70;38.40;;;;;;4847069;29;87091;-83
2021/06/26 10:32:58;;;;;;;5.90;5.57;;;42.40;36.10;;;;;;4842272;29;86713;-84
2021/06/26 10:35:27;;;;;;;5.72;5.43;;;43.10;36.10;;;;;;4846159;29;86226;-84
2021/06/26 10:38:04;;;;;;;6.33;5.93;;;43.90;35.20;;;;;;4853132;29;87136;-84
2021/06/26 10:40:37;;;;;;;6.03;5.72;;;43.90;33.90;;;;;;4850506;29;86617;-83
2021/06/26 10:43:32;;;;;;;5.72;5.43;;;44.70;34.30;;;;;;4853843;29;88618;-83
2021/06/26 10:46:12;;;;;;;6.00;5.70;;;44.50;33.40;;;;;;4833117;29;88256;-84
2021/06/26 10:48:41;;;;;;;6.45;6.05;;;44.80;33.10;;;;;;4851262;29;86040;-83
2021/06/26 10:51:08;;;;;;;6.45;6.05;;;45.40;33.70;;;;;;4851758;29;87040;-84
2021/06/26 10:53:36;;;;;;;5.90;5.60;;;46.00;33.30;;;;;;4849127;29;87166;-85
2021/06/26 10:56:03;;;;;;;6.40;6.10;;;46.00;33.10;;;;;;4856958;29;87247;-84
2021/06/26 10:58:32;;;;;;;6.32;6.03;;;46.10;32.70;;;;;;4841498;29;86868;-84
2021/06/26 11:00:58;;;;;;;6.13;5.82;;;46.00;32.60;;;;;;4854816;29;87018;-85
2021/06/26 11:03:31;;;;;;;5.95;5.65;;;46.30;32.30;;;;;;4854291;29;87492;-83
2021/06/26 11:05:59;;;;;;;6.72;6.43;;;46.70;32.10;;;;;;4867062;28;86436;-82
2021/06/26 11:08:26;;;;;;;6.10;5.80;;;47.00;32.00;;;;;;4874031;29;87928;-82
2021/06/26 11:10:59;;;;;;;6.03;5.72;;;46.60;31.10;;;;;;4855623;29;86864;-82
2021/06/26 11:13:28;;;;;;;6.15;5.85;;;46.60;30.50;;;;;;4856420;29;86839;-82
2021/06/26 11:16:07;;;;;;;6.65;6.35;;;46.50;31.10;;;;;;4872354;29;87171;-83
2021/06/26 11:18:34;;;;;;;6.63;6.28;;;45.90;31.70;;;;;;4871706;29;86180;-83
2021/06/26 11:21:00;;;;;;;6.40;6.10;;;46.20;31.70;;;;;;4876436;29;86818;-82
2021/06/26 11:23:26;;;;;;;6.75;6.40;;;45.70;31.60;;;;;;4871874;29;87009;-82
2021/06/26 11:25:58;;;;;;;6.55;6.20;;;45.70;31.60;;;;;;4863719;29;89090;-82
2021/06/26 11:28:24;;;;;;;6.20;5.90;;;45.50;31.60;;;;;;4875022;28;87039;-82
2021/06/26 11:31:02;;;;;;;6.35;5.97;;;45.20;32.10;;;;;;4863336;29;87033;-82
2021/06/26 11:33:30;;;;;;;6.70;6.40;;;46.10;31.40;;;;;;4871870;29;88481;-82
2021/06/26 11:35:56;;;;;;;6.40;6.10;;;46.20;31.40;;;;;;4860560;29;90872;-82
2021/06/26 11:38:22;;;;;;;6.53;6.22;;;46.10;31.60;;;;;;4874769;29;86830;-83
2021/06/26 11:40:50;;;;;;;6.30;6.00;;;46.00;31.30;;;;;;4873423;29;86304;-83
2021/06/26 11:43:16;;;;;;;6.35;6.05;;;45.90;30.50;;;;;;4877390;29;86734;-82
2021/06/26 11:45:46;;;;;;;6.85;6.45;;;45.70;31.60;;;;;;4869181;28;86948;-83
2021/06/26 11:48:19;;;;;;;6.20;5.90;;;44.80;31.60;;;;;;4878377;29;86804;-83
2021/06/26 11:50:52;;;;;;;6.28;5.97;;;44.40;32.10;;;;;;4877948;29;86400;-82
2021/06/26 11:53:21;;;;;;;6.22;5.93;;;44.00;31.90;;;;;;4866239;29;87184;-81
2021/06/26 11:56:06;;;;;;;;;;;43.70;32.20;;;;;;4877731;29;87433;-83
2021/06/26 11:58:43;;;;;;;6.18;5.78;;;43.20;32.30;;;;;;4876949;29;87645;-83
2021/06/26 12:01:11;;;;;;;6.07;5.78;;;43.00;32.40;;;;;;4881170;29;86935;-82
2021/06/26 12:03:38;;;;;;;5.97;5.68;;;43.10;32.80;;;;;;4882667;29;88142;-82
2021/06/26 12:06:08;;;;;;;5.78;5.47;;;43.00;33.20;;;;;;4876461;29;87933;-82
2021/06/26 12:08:45;;;;;;;5.80;5.50;;;42.60;33.00;;;;;;4880721;29;86727;-84
2021/06/26 12:11:16;;;;;;;5.50;5.20;;;41.90;33.80;;;;;;4880922;29;86593;-84
2021/06/26 12:13:44;;;;;;;5.80;5.50;;;42.10;34.10;;;;;;4876148;29;88159;-84
2021/06/26 12:16:25;;;;;;;5.28;5.07;;;42.90;33.70;;;;;;4880832;28;86248;-83
2021/06/26 12:18:56;;;;;;;5.70;5.40;;;43.10;32.20;;;;;;4878498;28;86275;-83
2021/06/26 12:21:26;;;;;;;5.97;5.47;;;42.70;32.80;;;;;;4881895;29;86675;-83
2021/06/26 12:23:54;;;;;;;5.50;5.20;;;42.80;32.80;;;;;;4868228;28;88792;-84
2021/06/26 12:26:25;;;;;;;5.68;5.38;;;42.30;33.10;;;;;;4880013;28;87074;-84
2021/06/26 12:28:53;;;;;;;5.60;5.30;;;42.00;33.90;;;;;;4884611;29;86857;-83
2021/06/26 12:31:20;;;;;;;5.35;5.10;;;41.20;34.30;;;;;;4879281;29;86225;-82
2021/06/26 12:33:47;;;;;;;5.30;5.10;;;40.60;35.20;;;;;;4880457;29;86916;-83
2021/06/26 12:36:15;;;;;;;5.28;5.07;;;40.10;35.40;;;;;;4880646;29;87060;-83
2021/06/26 12:38:42;;;;;;;5.45;5.07;;;39.90;35.50;;;;;;4880191;29;86257;-83
2021/06/26 12:41:34;;;;;;;5.00;4.75;;;40.10;35.20;;;;;;4881976;28;86440;-83
2021/06/26 12:44:01;;;;;;;5.50;5.10;;;40.10;35.30;;;;;;4884409;28;87059;-83
2021/06/26 12:46:30;;;;;;;5.20;4.90;;;39.80;36.60;;;;;;4873220;29;86988;-84
2021/06/26 12:49:17;;;;;;;5.07;4.87;;;40.10;35.70;;;;;;4863221;29;87641;-81
2021/06/26 12:51:46;;;;;;;5.10;4.90;;;40.40;34.30;;;;;;4863860;29;86474;-81
2021/06/26 12:54:13;;;;;;;4.78;4.47;;;39.90;35.30;;;;;;4866150;28;87146;-82
2021/06/26 12:56:43;;;;;;;4.60;4.40;;;39.10;36.50;;;;;;4884563;28;88082;-83
2021/06/26 12:59:09;;;;;;;;;;;39.30;36.80;;;;;;4880925;29;86686;-82
2021/06/26 13:01:53;;;;;;;4.78;4.57;;;38.70;37.50;;;;;;4872118;29;86826;-83
2021/06/26 13:04:23;;;;;;;4.97;4.70;;;38.40;37.20;;;;;;4861949;29;87659;-82
2021/06/26 13:06:56;;;;;;;;;;;38.20;37.00;;;;;;4862478;29;87056;-83
2021/06/26 13:09:37;;;;;;;5.18;4.75;;;37.90;38.00;;;;;;4871234;29;86987;-82
2021/06/26 13:12:17;;;;;;;5.00;4.65;;;37.80;39.10;;;;;;4874200;29;86327;-81
2021/06/26 13:14:43;;;;;;;;;;;38.00;37.10;;;;;;4879600;29;90072;-80
2021/06/26 13:17:10;;;;;;;4.90;4.60;;;37.90;38.20;;;;;;4880115;29;87405;-80
2021/06/26 13:19:37;;;;;;;4.95;4.60;;;37.90;37.60;;;;;;4876436;29;86691;-80
2021/06/26 13:22:22;;;;;;;4.88;4.68;;;37.80;37.60;;;;;;4882013;29;86625;-80
2021/06/26 13:24:48;;;;;;;4.85;4.55;;;37.30;37.90;;;;;;4861476;29;86668;-81
2021/06/26 13:27:15;;;;;;;4.90;4.60;;;37.10;38.80;;;;;;4879777;29;87120;-83
2021/06/26 13:29:42;;;;;;;5.20;4.90;;;36.80;39.10;;;;;;4877447;29;86560;-80
2021/06/26 13:32:08;;;;;;;4.60;4.40;;;36.60;39.10;;;;;;4877315;28;85989;-81
2021/06/26 13:34:34;;;;;;;4.82;4.63;;;36.40;39.30;;;;;;4878499;29;87702;-82
2021/06/26 13:37:00;;;;;;;4.57;4.38;;;36.50;39.90;;;;;;4877350;29;86930;-82
2021/06/26 13:39:26;;;;;;;4.70;4.40;;;36.60;39.00;;;;;;4876833;29;87508;-81
2021/06/26 13:41:52;;;;;;;4.80;4.60;;;36.60;39.80;;;;;;4875645;29;86590;-81
2021/06/26 13:44:18;;;;;;;4.50;4.30;;;35.90;39.90;;;;;;4879743;28;88683;-83
2021/06/26 13:46:44;;;;;;;4.60;4.40;;;35.30;40.80;;;;;;4880287;28;86709;-81
2021/06/26 13:49:11;;;;;;;4.47;4.28;;;35.30;40.60;;;;;;4877424;28;86843;-82
2021/06/26 13:51:38;;;;;;;4.97;4.57;;;34.70;41.60;;;;;;4874643;29;87122;-82
2021/06/26 13:54:04;;;;;;;4.60;4.40;;;34.50;41.80;;;;;;4876490;29;88491;-82
2021/06/26 13:56:30;;;;;;;4.72;4.43;;;34.80;41.60;;;;;;4882132;28;87121;-83
2021/06/26 13:58:56;;;;;;;5.00;4.70;;;34.40;42.00;;;;;;4876758;28;86259;-83
2021/06/26 14:01:22;;;;;;;5.05;4.75;;;33.90;41.80;;;;;;4874491;28;86695;-82
2021/06/26 14:03:47;;;;;;;4.70;4.30;;;33.80;42.40;;;;;;4871839;29;88084;-82
2021/06/26 14:06:18;;;;;;;5.28;4.45;;;33.70;42.20;;;;;;4880786;28;88902;-82
2021/06/26 14:08:44;;;;;;;4.30;4.10;;;32.90;43.60;;;;;;4881727;28;86913;-81
2021/06/26 14:11:10;;;;;;;4.57;4.38;;;32.70;44.00;;;;;;4877145;29;86721;-81
2021/06/26 14:13:36;;;;;;;4.80;4.50;;;32.10;44.70;;;;;;4868791;29;88487;-82
2021/06/26 14:16:02;;;;;;;4.50;4.20;;;31.70;45.90;;;;;;4875105;28;87382;-82
2021/06/26 14:18:28;;;;;;;4.40;4.10;;;31.60;45.60;;;;;;4881550;29;85961;-82
2021/06/26 14:20:54;;;;;;;4.80;4.40;;;31.50;46.00;;;;;;4879894;29;85901;-82
2021/06/26 14:23:20;;;;;;;4.30;4.10;;;31.20;47.10;;;;;;4874346;28;86565;-82
2021/06/26 14:25:45;;;;;;;4.63;4.40;;;31.50;46.40;;;;;;4879270;29;87274;-83
2021/06/26 14:28:11;;;;;;;4.30;4.10;;;31.60;46.20;;;;;;4873497;29;87786;-81
2021/06/26 14:30:38;;;;;;;4.35;4.15;;;;;;;;;;4865762;29;86306;-80
2021/06/26 14:33:04;;;;;;;4.25;4.05;;;31.10;46.40;;;;;;4875605;29;87747;-82
2021/06/26 14:35:30;;;;;;;4.78;4.47;;;31.00;46.60;;;;;;4876031;29;86746;-82
2021/06/26 14:37:56;;;;;;;4.50;4.20;;;30.90;47.30;;;;;;4872295;29;86808;-83
2021/06/26 14:40:22;;;;;;;4.28;4.07;;;30.80;47.20;;;;;;4858156;29;86918;-83
2021/06/26 14:42:47;;;;;;;4.55;4.30;;;30.40;47.90;;;;;;4865727;29;87021;-82
2021/06/26 14:45:14;;;;;;;4.50;4.20;;;30.00;48.20;;;;;;4874829;29;86429;-82
2021/06/26 14:47:40;;;;;;;4.22;4.03;;;29.90;48.50;;;;;;4876766;29;87000;-83
2021/06/26 14:50:07;;;;;;;4.30;4.10;;;29.70;49.30;;;;;;4870688;29;86386;-81
2021/06/26 14:52:33;;;;;;;4.05;3.85;;;29.60;49.70;;;;;;4874376;29;87936;-83
2021/06/26 14:54:59;;;;;;;4.45;4.15;;;29.70;49.30;;;;;;4877932;29;87912;-82
2021/06/26 14:57:25;;;;;;;4.40;4.10;;;29.60;49.00;;;;;;4878198;29;87027;-81
2021/06/26 14:59:51;;;;;;;4.35;4.05;;;29.50;49.50;;;;;;4863791;29;87078;-82
2021/06/26 15:02:16;;;;;;;4.47;4.07;;;29.50;50.10;;;;;;4863143;29;87864;-82
2021/06/26 15:04:43;;;;;;;4.00;3.80;;;29.60;49.70;;;;;;4861423;29;87940;-80
2021/06/26 15:07:08;;;;;;;3.75;3.55;;;29.40;49.30;;;;;;4839881;29;86915;-83
2021/06/26 15:09:34;;;;;;;4.32;4.03;;;29.40;49.80;;;;;;4851797;29;86166;-82
2021/06/26 15:12:00;;;;;;;4.20;4.00;;;29.10;50.20;;;;;;4858034;29;88125;-82
2021/06/26 15:14:26;;;;;;;4.30;4.05;;;28.90;51.20;;;;;;4857933;29;87979;-82
2021/06/26 15:16:52;;;;;;;4.20;3.90;;;28.60;51.10;;;;;;4845737;29;87900;-81
2021/06/26 15:19:18;;;;;;;4.22;4.03;;;28.50;51.70;;;;;;4859148;29;86995;-83
2021/06/26 15:21:44;;;;;;;4.85;4.45;;;28.50;51.90;;;;;;4840221;29;87250;-83
2021/06/26 15:24:10;;;;;;;4.35;4.00;;;28.60;51.60;;;;;;4846969;29;87340;-81
2021/06/26 15:26:36;;;;;;;4.15;3.95;;;28.80;50.90;;;;;;4852212;29;86910;-83
2021/06/26 15:29:07;;;;;;;4.10;3.90;;;28.90;50.90;;;;;;4848844;29;86972;-81
2021/06/26 15:31:42;;;;;;;4.25;4.05;;;29.20;52.30;;;;;;4852760;29;87000;-83
2021/06/26 15:34:10;;;;;;;4.45;4.25;;;29.50;50.70;;;;;;4840652;29;86934;-82
2021/06/26 15:36:39;;;;;;;4.00;3.70;;;29.50;50.80;;;;;;4859311;29;86878;-83
2021/06/26 15:39:07;;;;;;;4.55;4.25;;;29.50;50.70;;;;;;4857183;29;87079;-81
2021/06/26 15:41:32;;;;;;;4.68;4.40;;;29.40;50.30;;;;;;4857509;29;88047;-81
2021/06/26 15:43:58;;;;;;;4.43;4.13;;;29.30;50.50;;;;;;4838607;29;90933;-81
2021/06/26 15:46:26;;;;;;;4.28;4.07;;;29.10;51.00;;;;;;4857834;29;87185;-80
2021/06/26 15:48:52;;;;;;;4.35;3.95;;;29.10;51.60;;;;;;4845687;29;86816;-82
2021/06/26 15:51:18;;;;;;;5.00;4.60;;;29.20;51.90;;;;;;4857203;29;87208;-81
2021/06/26 15:53:44;;;;;;;4.10;3.90;;;29.10;51.20;;;;;;4855702;29;87040;-82
2021/06/26 15:56:09;;;;;;;4.47;4.15;;;29.20;51.10;;;;;;4841529;29;86932;-81
2021/06/26 15:58:35;;;;;;;4.03;3.83;;;29.20;51.20;;;;;;4837820;29;86261;-81
2021/06/26 16:01:03;;;;;;;4.70;4.40;;;29.10;50.90;;;;;;4857053;29;87638;-81
2021/06/26 16:03:30;;;;;;;4.32;4.03;;;29.10;51.40;;;;;;4860353;29;87085;-80
2021/06/26 16:05:56;;;;;;;4.90;4.60;;;29.10;51.70;;;;;;4867797;29;87614;-83
2021/06/26 16:08:22;;;;;;;4.30;4.00;;;29.00;50.90;;;;;;4855705;29;87007;-81